sensor_id;sensor_type;location;lat;lon;timestamp;temperature;humidity
3406;DHT22;10008;48.682;9.016;2024-02-21T00:00:46;6.70;99.90
3406;DHT22;10008;48.682;9.016;2024-02-21T00:03:12;6.70;99.90
3406;DHT22;10008;48.682;9.016;2024-02-21T00:05:38;6.60;99.90
3406;DHT22;10008;48.682;9.016;2024-02-21T00:08:04;6.60;99.90
3406;DHT22;10008;48.682;9.016;2024-02-21T00:10:30;6.60;99.90
3406;DHT22;10008;48.682;9.016;2024-02-21T00:12:58;6.70;99.90
3406;DHT22;10008;48.682;9.016;2024-02-21T00:15:25;6.60;99.90
3406;DHT22;10008;48.682;9.016;2024-02-21T00:17:51;6.60;99.90
3406;DHT22;10008;48.682;9.016;2024-02-21T00:20:17;6.70;99.90
3406;DHT22;10008;48.682;9.016;2024-02-21T00:22:43;6.70;99.90
3406;DHT22;10008;48.682;9.016;2024-02-21T00:25:10;6.70;99.90
3406;DHT22;10008;48.682;9.016;2024-02-21T00:27:36;6.70;99.90
3406;DHT22;10008;48.682;9.016;2024-02-21T00:30:02;6.70;99.90
3406;DHT22;10008;48.682;9.016;2024-02-21T00:32:28;6.50;99.90
3406;DHT22;10008;48.682;9.016;2024-02-21T00:34:54;6.50;99.90
3406;DHT22;10008;48.682;9.016;2024-02-21T00:37:20;6.40;99.90
3406;DHT22;10008;48.682;9.016;2024-02-21T00:39:45;6.60;99.90
3406;DHT22;10008;48.682;9.016;2024-02-21T00:42:11;6.70;99.90
3406;DHT22;10008;48.682;9.016;2024-02-21T00:44:37;6.70;99.90
3406;DHT22;10008;48.682;9.016;2024-02-21T00:47:02;6.60;99.90
3406;DHT22;10008;48.682;9.016;2024-02-21T00:49:28;6.70;99.90
3406;DHT22;10008;48.682;9.016;2024-02-21T00:51:54;6.70;99.90
3406;DHT22;10008;48.682;9.016;2024-02-21T00:54:20;6.70;99.90
3406;DHT22;10008;48.682;9.016;2024-02-21T00:56:45;6.80;99.90
3406;DHT22;10008;48.682;9.016;2024-02-21T00:59:11;6.80;99.90
3406;DHT22;10008;48.682;9.016;2024-02-21T01:01:37;6.80;99.90
3406;DHT22;10008;48.682;9.016;2024-02-21T01:04:02;6.80;99.90
3406;DHT22;10008;48.682;9.016;2024-02-21T01:06:28;6.70;99.90
3406;DHT22;10008;48.682;9.016;2024-02-21T01:08:54;6.70;99.90
3406;DHT22;10008;48.682;9.016;2024-02-21T01:11:20;6.70;99.90
3406;DHT22;10008;48.682;9.016;2024-02-21T01:13:45;6.80;99.90
3406;DHT22;10008;48.682;9.016;2024-02-21T01:16:11;6.80;99.90
3406;DHT22;10008;48.682;9.016;2024-02-21T01:18:37;6.80;99.90
3406;DHT22;10008;48.682;9.016;2024-02-21T01:21:05;6.80;99.90
3406;DHT22;10008;48.682;9.016;2024-02-21T01:23:34;6.80;99.90
3406;DHT22;10008;48.682;9.016;2024-02-21T01:26:00;6.70;99.90
3406;DHT22;10008;48.682;9.016;2024-02-21T01:28:26;6.60;99.90
3406;DHT22;10008;48.682;9.016;2024-02-21T01:30:51;6.50;99.90
3406;DHT22;10008;48.682;9.016;2024-02-21T01:33:17;6.50;99.90
3406;DHT22;10008;48.682;9.016;2024-02-21T01:35:44;6.40;99.90
3406;DHT22;10008;48.682;9.016;2024-02-21T01:38:12;6.40;99.90
3406;DHT22;10008;48.682;9.016;2024-02-21T01:40:37;6.30;99.90
3406;DHT22;10008;48.682;9.016;2024-02-21T01:43:03;6.30;99.90
3406;DHT22;10008;48.682;9.016;2024-02-21T01:45:29;6.20;99.90
3406;DHT22;10008;48.682;9.016;2024-02-21T01:47:55;6.20;99.90
3406;DHT22;10008;48.682;9.016;2024-02-21T01:50:22;6.20;99.90
3406;DHT22;10008;48.682;9.016;2024-02-21T01:52:50;6.10;99.90
3406;DHT22;10008;48.682;9.016;2024-02-21T01:55:16;6.10;99.90
3406;DHT22;10008;48.682;9.016;2024-02-21T01:57:43;6.10;99.90
3406;DHT22;10008;48.682;9.016;2024-02-21T02:00:13;6.00;99.90
3406;DHT22;10008;48.682;9.016;2024-02-21T02:02:40;6.00;99.90
3406;DHT22;10008;48.682;9.016;2024-02-21T02:05:08;6.00;99.90
3406;DHT22;10008;48.682;9.016;2024-02-21T02:07:33;6.00;99.90
3406;DHT22;10008;48.682;9.016;2024-02-21T02:09:59;6.00;99.90
3406;DHT22;10008;48.682;9.016;2024-02-21T02:12:25;5.90;99.90
3406;DHT22;10008;48.682;9.016;2024-02-21T02:15:01;5.90;99.90
3406;DHT22;10008;48.682;9.016;2024-02-21T02:17:30;5.90;99.90
3406;DHT22;10008;48.682;9.016;2024-02-21T02:19:56;6.00;99.90
3406;DHT22;10008;48.682;9.016;2024-02-21T02:22:25;6.00;99.90
3406;DHT22;10008;48.682;9.016;2024-02-21T02:24:53;6.00;99.90
3406;DHT22;10008;48.682;9.016;2024-02-21T02:27:19;6.00;99.90
3406;DHT22;10008;48.682;9.016;2024-02-21T02:29:45;6.00;99.90
3406;DHT22;10008;48.682;9.016;2024-02-21T02:32:11;6.00;99.90
3406;DHT22;10008;48.682;9.016;2024-02-21T02:34:37;6.10;99.90
3406;DHT22;10008;48.682;9.016;2024-02-21T02:37:03;6.00;99.90
3406;DHT22;10008;48.682;9.016;2024-02-21T02:39:28;6.10;99.90
3406;DHT22;10008;48.682;9.016;2024-02-21T02:41:54;6.10;99.90
3406;DHT22;10008;48.682;9.016;2024-02-21T02:44:20;6.10;99.90
3406;DHT22;10008;48.682;9.016;2024-02-21T02:46:45;6.10;99.90
3406;DHT22;10008;48.682;9.016;2024-02-21T02:49:11;6.20;99.90
3406;DHT22;10008;48.682;9.016;2024-02-21T02:51:41;6.20;99.90
3406;DHT22;10008;48.682;9.016;2024-02-21T02:54:07;6.20;99.90
3406;DHT22;10008;48.682;9.016;2024-02-21T02:56:33;6.20;99.90
3406;DHT22;10008;48.682;9.016;2024-02-21T02:58:59;6.20;99.90
3406;DHT22;10008;48.682;9.016;2024-02-21T03:01:25;6.20;99.90
3406;DHT22;10008;48.682;9.016;2024-02-21T03:03:50;6.20;99.90
3406;DHT22;10008;48.682;9.016;2024-02-21T03:06:16;6.20;99.90
3406;DHT22;10008;48.682;9.016;2024-02-21T03:08:42;6.30;99.90
3406;DHT22;10008;48.682;9.016;2024-02-21T03:11:08;6.40;99.90
3406;DHT22;10008;48.682;9.016;2024-02-21T03:13:34;6.40;99.90
3406;DHT22;10008;48.682;9.016;2024-02-21T03:15:59;6.40;99.90
3406;DHT22;10008;48.682;9.016;2024-02-21T03:18:25;6.40;99.90
3406;DHT22;10008;48.682;9.016;2024-02-21T03:20:51;6.40;99.90
3406;DHT22;10008;48.682;9.016;2024-02-21T03:23:17;6.50;99.90
3406;DHT22;10008;48.682;9.016;2024-02-21T03:25:42;6.40;99.90
3406;DHT22;10008;48.682;9.016;2024-02-21T03:28:08;6.30;99.90
3406;DHT22;10008;48.682;9.016;2024-02-21T03:30:34;6.40;99.90
3406;DHT22;10008;48.682;9.016;2024-02-21T03:32:59;6.40;99.90
3406;DHT22;10008;48.682;9.016;2024-02-21T03:35:26;6.40;99.90
3406;DHT22;10008;48.682;9.016;2024-02-21T03:37:53;6.40;99.90
3406;DHT22;10008;48.682;9.016;2024-02-21T03:40:18;6.40;99.90
3406;DHT22;10008;48.682;9.016;2024-02-21T03:42:44;6.40;99.90
3406;DHT22;10008;48.682;9.016;2024-02-21T03:45:10;6.40;99.90
3406;DHT22;10008;48.682;9.016;2024-02-21T03:47:36;6.50;99.90
3406;DHT22;10008;48.682;9.016;2024-02-21T03:50:01;6.40;99.90
3406;DHT22;10008;48.682;9.016;2024-02-21T03:52:27;6.50;99.90
3406;DHT22;10008;48.682;9.016;2024-02-21T03:54:53;6.40;99.90
3406;DHT22;10008;48.682;9.016;2024-02-21T03:57:20;6.50;99.90
3406;DHT22;10008;48.682;9.016;2024-02-21T03:59:49;6.50;99.90
3406;DHT22;10008;48.682;9.016;2024-02-21T04:02:15;6.50;99.90
3406;DHT22;10008;48.682;9.016;2024-02-21T04:04:45;6.50;99.90
3406;DHT22;10008;48.682;9.016;2024-02-21T04:07:14;6.60;99.90
3406;DHT22;10008;48.682;9.016;2024-02-21T04:09:40;6.50;99.90
3406;DHT22;10008;48.682;9.016;2024-02-21T04:12:08;6.40;99.90
3406;DHT22;10008;48.682;9.016;2024-02-21T04:14:34;6.30;99.90
3406;DHT22;10008;48.682;9.016;2024-02-21T04:17:00;6.20;99.90
3406;DHT22;10008;48.682;9.016;2024-02-21T04:19:26;6.20;99.90
3406;DHT22;10008;48.682;9.016;2024-02-21T04:21:51;6.20;99.90
3406;DHT22;10008;48.682;9.016;2024-02-21T04:24:17;6.20;99.90
3406;DHT22;10008;48.682;9.016;2024-02-21T04:26:43;6.10;99.90
3406;DHT22;10008;48.682;9.016;2024-02-21T04:29:09;6.10;99.90
3406;DHT22;10008;48.682;9.016;2024-02-21T04:31:35;6.10;99.90
3406;DHT22;10008;48.682;9.016;2024-02-21T04:34:01;6.10;99.90
3406;DHT22;10008;48.682;9.016;2024-02-21T04:36:28;6.10;99.90
3406;DHT22;10008;48.682;9.016;2024-02-21T04:38:54;6.00;99.90
3406;DHT22;10008;48.682;9.016;2024-02-21T04:41:19;6.00;99.90
3406;DHT22;10008;48.682;9.016;2024-02-21T04:43:48;6.00;99.90
3406;DHT22;10008;48.682;9.016;2024-02-21T04:46:14;6.00;99.90
3406;DHT22;10008;48.682;9.016;2024-02-21T04:48:41;5.90;99.90
3406;DHT22;10008;48.682;9.016;2024-02-21T04:51:06;5.90;99.90
3406;DHT22;10008;48.682;9.016;2024-02-21T04:53:32;5.80;99.90
3406;DHT22;10008;48.682;9.016;2024-02-21T04:55:58;5.80;99.90
3406;DHT22;10008;48.682;9.016;2024-02-21T04:58:24;5.80;99.90
3406;DHT22;10008;48.682;9.016;2024-02-21T05:00:50;5.70;99.90
3406;DHT22;10008;48.682;9.016;2024-02-21T05:03:17;5.60;99.90
3406;DHT22;10008;48.682;9.016;2024-02-21T05:05:42;5.60;99.90
3406;DHT22;10008;48.682;9.016;2024-02-21T05:08:09;5.50;99.90
3406;DHT22;10008;48.682;9.016;2024-02-21T05:10:35;5.50;99.90
3406;DHT22;10008;48.682;9.016;2024-02-21T05:13:01;5.50;99.90
3406;DHT22;10008;48.682;9.016;2024-02-21T05:15:27;5.50;99.90
3406;DHT22;10008;48.682;9.016;2024-02-21T05:17:53;5.40;99.90
3406;DHT22;10008;48.682;9.016;2024-02-21T05:20:18;5.40;99.90
3406;DHT22;10008;48.682;9.016;2024-02-21T05:22:44;5.50;99.90
3406;DHT22;10008;48.682;9.016;2024-02-21T05:25:10;5.50;99.90
3406;DHT22;10008;48.682;9.016;2024-02-21T05:27:35;5.50;99.90
3406;DHT22;10008;48.682;9.016;2024-02-21T05:30:03;5.40;99.90
3406;DHT22;10008;48.682;9.016;2024-02-21T05:32:29;5.40;99.90
3406;DHT22;10008;48.682;9.016;2024-02-21T05:34:55;5.40;99.90
3406;DHT22;10008;48.682;9.016;2024-02-21T05:37:20;5.30;99.90
3406;DHT22;10008;48.682;9.016;2024-02-21T05:39:46;5.30;99.90
3406;DHT22;10008;48.682;9.016;2024-02-21T05:42:12;5.20;99.90
3406;DHT22;10008;48.682;9.016;2024-02-21T05:44:38;5.10;99.90
3406;DHT22;10008;48.682;9.016;2024-02-21T05:47:04;5.00;99.90
3406;DHT22;10008;48.682;9.016;2024-02-21T05:49:29;5.00;99.90
3406;DHT22;10008;48.682;9.016;2024-02-21T05:51:55;5.00;99.90
3406;DHT22;10008;48.682;9.016;2024-02-21T05:54:21;5.00;99.90
3406;DHT22;10008;48.682;9.016;2024-02-21T05:56:46;5.00;99.90
3406;DHT22;10008;48.682;9.016;2024-02-21T05:59:12;5.10;99.90
3406;DHT22;10008;48.682;9.016;2024-02-21T06:01:38;5.10;99.90
3406;DHT22;10008;48.682;9.016;2024-02-21T06:04:04;5.20;99.90
3406;DHT22;10008;48.682;9.016;2024-02-21T06:06:30;5.20;99.90
3406;DHT22;10008;48.682;9.016;2024-02-21T06:08:56;5.20;99.90
3406;DHT22;10008;48.682;9.016;2024-02-21T06:11:22;5.20;99.90
3406;DHT22;10008;48.682;9.016;2024-02-21T06:13:48;5.30;99.90
3406;DHT22;10008;48.682;9.016;2024-02-21T06:16:13;5.20;99.90
3406;DHT22;10008;48.682;9.016;2024-02-21T06:18:39;5.20;99.90
3406;DHT22;10008;48.682;9.016;2024-02-21T06:21:05;5.20;99.90
3406;DHT22;10008;48.682;9.016;2024-02-21T06:23:31;5.30;99.90
3406;DHT22;10008;48.682;9.016;2024-02-21T06:25:57;5.40;99.90
3406;DHT22;10008;48.682;9.016;2024-02-21T06:28:22;5.40;99.90
3406;DHT22;10008;48.682;9.016;2024-02-21T06:30:48;5.40;99.90
3406;DHT22;10008;48.682;9.016;2024-02-21T06:33:14;5.30;99.90
3406;DHT22;10008;48.682;9.016;2024-02-21T06:35:39;5.40;99.90
3406;DHT22;10008;48.682;9.016;2024-02-21T06:38:07;5.40;99.90
3406;DHT22;10008;48.682;9.016;2024-02-21T06:40:33;5.30;99.90
3406;DHT22;10008;48.682;9.016;2024-02-21T06:43:05;5.30;99.90
3406;DHT22;10008;48.682;9.016;2024-02-21T06:45:31;5.40;99.90
3406;DHT22;10008;48.682;9.016;2024-02-21T06:47:57;5.40;99.90
3406;DHT22;10008;48.682;9.016;2024-02-21T06:50:22;5.50;99.90
3406;DHT22;10008;48.682;9.016;2024-02-21T06:52:48;5.50;99.90
3406;DHT22;10008;48.682;9.016;2024-02-21T06:55:14;5.50;99.90
3406;DHT22;10008;48.682;9.016;2024-02-21T06:57:39;5.50;99.90
3406;DHT22;10008;48.682;9.016;2024-02-21T07:00:06;5.50;99.90
3406;DHT22;10008;48.682;9.016;2024-02-21T07:02:34;5.50;99.90
3406;DHT22;10008;48.682;9.016;2024-02-21T07:05:00;5.60;99.90
3406;DHT22;10008;48.682;9.016;2024-02-21T07:07:25;5.70;99.90
3406;DHT22;10008;48.682;9.016;2024-02-21T07:09:51;5.80;99.90
3406;DHT22;10008;48.682;9.016;2024-02-21T07:12:18;5.90;99.90
3406;DHT22;10008;48.682;9.016;2024-02-21T07:14:44;6.00;99.90
3406;DHT22;10008;48.682;9.016;2024-02-21T07:17:10;6.00;99.90
3406;DHT22;10008;48.682;9.016;2024-02-21T07:19:36;6.20;99.90
3406;DHT22;10008;48.682;9.016;2024-02-21T07:22:02;6.20;99.90
3406;DHT22;10008;48.682;9.016;2024-02-21T07:24:28;6.20;99.90
3406;DHT22;10008;48.682;9.016;2024-02-21T07:26:54;6.20;99.90
3406;DHT22;10008;48.682;9.016;2024-02-21T07:29:19;6.30;99.90
3406;DHT22;10008;48.682;9.016;2024-02-21T07:31:45;6.30;99.90
3406;DHT22;10008;48.682;9.016;2024-02-21T07:34:11;6.30;99.90
3406;DHT22;10008;48.682;9.016;2024-02-21T07:36:37;6.40;99.90
3406;DHT22;10008;48.682;9.016;2024-02-21T07:39:05;6.40;99.90
3406;DHT22;10008;48.682;9.016;2024-02-21T07:41:31;6.50;99.90
3406;DHT22;10008;48.682;9.016;2024-02-21T07:43:59;6.50;99.90
3406;DHT22;10008;48.682;9.016;2024-02-21T07:46:25;6.50;99.90
3406;DHT22;10008;48.682;9.016;2024-02-21T07:48:50;6.60;99.90
3406;DHT22;10008;48.682;9.016;2024-02-21T07:51:16;6.70;99.90
3406;DHT22;10008;48.682;9.016;2024-02-21T07:53:43;6.70;99.90
3406;DHT22;10008;48.682;9.016;2024-02-21T07:56:14;6.80;99.90
3406;DHT22;10008;48.682;9.016;2024-02-21T07:58:40;6.80;99.90
3406;DHT22;10008;48.682;9.016;2024-02-21T08:01:06;6.90;99.90
3406;DHT22;10008;48.682;9.016;2024-02-21T08:03:32;6.90;99.90
3406;DHT22;10008;48.682;9.016;2024-02-21T08:05:58;6.90;99.90
3406;DHT22;10008;48.682;9.016;2024-02-21T08:08:24;7.00;99.90
3406;DHT22;10008;48.682;9.016;2024-02-21T08:10:50;7.20;99.90
3406;DHT22;10008;48.682;9.016;2024-02-21T08:13:16;7.30;99.90
3406;DHT22;10008;48.682;9.016;2024-02-21T08:15:42;7.40;99.90
3406;DHT22;10008;48.682;9.016;2024-02-21T08:18:08;7.50;99.90
3406;DHT22;10008;48.682;9.016;2024-02-21T08:20:34;7.60;99.90
3406;DHT22;10008;48.682;9.016;2024-02-21T08:23:00;7.70;99.90
3406;DHT22;10008;48.682;9.016;2024-02-21T08:25:26;7.70;99.90
3406;DHT22;10008;48.682;9.016;2024-02-21T08:27:56;7.80;99.90
3406;DHT22;10008;48.682;9.016;2024-02-21T08:30:23;7.80;99.90
3406;DHT22;10008;48.682;9.016;2024-02-21T08:32:48;7.90;99.90
3406;DHT22;10008;48.682;9.016;2024-02-21T08:35:14;7.90;99.90
3406;DHT22;10008;48.682;9.016;2024-02-21T08:37:40;7.90;99.90
3406;DHT22;10008;48.682;9.016;2024-02-21T08:40:06;7.90;99.90
3406;DHT22;10008;48.682;9.016;2024-02-21T08:42:39;8.00;99.90
3406;DHT22;10008;48.682;9.016;2024-02-21T08:45:05;8.20;99.90
3406;DHT22;10008;48.682;9.016;2024-02-21T08:47:31;8.30;99.90
3406;DHT22;10008;48.682;9.016;2024-02-21T08:49:57;8.30;99.90
3406;DHT22;10008;48.682;9.016;2024-02-21T08:52:22;8.50;99.90
3406;DHT22;10008;48.682;9.016;2024-02-21T08:54:48;8.50;99.90
3406;DHT22;10008;48.682;9.016;2024-02-21T08:57:14;8.80;99.90
3406;DHT22;10008;48.682;9.016;2024-02-21T08:59:40;8.70;99.90
3406;DHT22;10008;48.682;9.016;2024-02-21T09:02:06;8.60;99.90
3406;DHT22;10008;48.682;9.016;2024-02-21T09:04:33;8.60;99.90
3406;DHT22;10008;48.682;9.016;2024-02-21T09:06:59;8.70;99.90
3406;DHT22;10008;48.682;9.016;2024-02-21T09:09:25;8.80;99.90
3406;DHT22;10008;48.682;9.016;2024-02-21T09:11:51;8.80;99.90
3406;DHT22;10008;48.682;9.016;2024-02-21T09:14:17;8.90;99.90
3406;DHT22;10008;48.682;9.016;2024-02-21T09:16:43;9.00;99.90
3406;DHT22;10008;48.682;9.016;2024-02-21T09:19:09;9.00;99.90
3406;DHT22;10008;48.682;9.016;2024-02-21T09:21:39;9.00;99.90
3406;DHT22;10008;48.682;9.016;2024-02-21T09:24:06;9.10;99.90
3406;DHT22;10008;48.682;9.016;2024-02-21T09:26:31;9.30;99.90
3406;DHT22;10008;48.682;9.016;2024-02-21T09:28:57;9.40;99.90
3406;DHT22;10008;48.682;9.016;2024-02-21T09:31:23;9.60;99.90
3406;DHT22;10008;48.682;9.016;2024-02-21T09:33:49;9.50;99.90
3406;DHT22;10008;48.682;9.016;2024-02-21T09:36:14;9.60;99.90
3406;DHT22;10008;48.682;9.016;2024-02-21T09:38:40;9.80;99.90
3406;DHT22;10008;48.682;9.016;2024-02-21T09:41:16;10.00;99.90
3406;DHT22;10008;48.682;9.016;2024-02-21T09:43:43;10.40;99.90
3406;DHT22;10008;48.682;9.016;2024-02-21T09:46:18;10.50;99.90
3406;DHT22;10008;48.682;9.016;2024-02-21T09:51:21;10.50;99.90
3406;DHT22;10008;48.682;9.016;2024-02-21T09:53:49;10.60;99.10
3406;DHT22;10008;48.682;9.016;2024-02-21T09:56:16;10.90;99.70
3406;DHT22;10008;48.682;9.016;2024-02-21T09:58:42;11.50;99.20
3406;DHT22;10008;48.682;9.016;2024-02-21T10:01:08;12.00;98.20
3406;DHT22;10008;48.682;9.016;2024-02-21T10:03:34;12.10;96.20
3406;DHT22;10008;48.682;9.016;2024-02-21T10:06:00;12.10;95.80
3406;DHT22;10008;48.682;9.016;2024-02-21T10:08:27;12.50;95.80
3406;DHT22;10008;48.682;9.016;2024-02-21T10:10:52;12.80;96.10
3406;DHT22;10008;48.682;9.016;2024-02-21T10:13:28;13.00;94.60
3406;DHT22;10008;48.682;9.016;2024-02-21T10:16:07;12.90;94.20
3406;DHT22;10008;48.682;9.016;2024-02-21T10:18:34;12.70;94.50
3406;DHT22;10008;48.682;9.016;2024-02-21T10:21:08;12.30;93.60
3406;DHT22;10008;48.682;9.016;2024-02-21T10:23:41;12.40;95.20
3406;DHT22;10008;48.682;9.016;2024-02-21T10:26:07;12.30;94.90
3406;DHT22;10008;48.682;9.016;2024-02-21T10:28:33;12.50;95.30
3406;DHT22;10008;48.682;9.016;2024-02-21T10:30:59;12.70;95.40
3406;DHT22;10008;48.682;9.016;2024-02-21T10:33:25;13.00;95.70
3406;DHT22;10008;48.682;9.016;2024-02-21T10:35:53;13.30;93.60
3406;DHT22;10008;48.682;9.016;2024-02-21T10:38:19;13.20;93.60
3406;DHT22;10008;48.682;9.016;2024-02-21T10:40:47;12.80;93.80
3406;DHT22;10008;48.682;9.016;2024-02-21T10:43:14;12.50;94.10
3406;DHT22;10008;48.682;9.016;2024-02-21T10:45:41;12.60;94.40
3406;DHT22;10008;48.682;9.016;2024-02-21T10:48:14;12.70;93.60
3406;DHT22;10008;48.682;9.016;2024-02-21T10:51:14;13.00;93.20
3406;DHT22;10008;48.682;9.016;2024-02-21T10:56:34;13.30;91.30
3406;DHT22;10008;48.682;9.016;2024-02-21T10:59:04;13.40;90.90
3406;DHT22;10008;48.682;9.016;2024-02-21T11:01:30;13.10;91.20
3406;DHT22;10008;48.682;9.016;2024-02-21T11:04:08;12.80;91.90
3406;DHT22;10008;48.682;9.016;2024-02-21T11:06:38;12.50;91.70
3406;DHT22;10008;48.682;9.016;2024-02-21T11:09:05;12.40;92.30
3406;DHT22;10008;48.682;9.016;2024-02-21T11:11:35;12.40;92.00
3406;DHT22;10008;48.682;9.016;2024-02-21T11:14:20;12.50;93.50
3406;DHT22;10008;48.682;9.016;2024-02-21T11:16:47;12.60;92.60
3406;DHT22;10008;48.682;9.016;2024-02-21T11:19:26;12.40;91.50
3406;DHT22;10008;48.682;9.016;2024-02-21T11:21:53;12.20;91.80
3406;DHT22;10008;48.682;9.016;2024-02-21T11:24:27;12.40;92.20
3406;DHT22;10008;48.682;9.016;2024-02-21T11:26:54;12.60;91.90
3406;DHT22;10008;48.682;9.016;2024-02-21T11:29:30;12.70;90.60
3406;DHT22;10008;48.682;9.016;2024-02-21T11:31:56;12.80;91.00
3406;DHT22;10008;48.682;9.016;2024-02-21T11:34:21;12.70;90.10
3406;DHT22;10008;48.682;9.016;2024-02-21T11:36:53;12.60;90.00
3406;DHT22;10008;48.682;9.016;2024-02-21T11:39:26;12.60;89.40
3406;DHT22;10008;48.682;9.016;2024-02-21T11:42:05;12.60;89.00
3406;DHT22;10008;48.682;9.016;2024-02-21T11:44:31;12.90;89.60
3406;DHT22;10008;48.682;9.016;2024-02-21T11:46:58;13.10;88.30
3406;DHT22;10008;48.682;9.016;2024-02-21T11:49:37;13.00;88.00
3406;DHT22;10008;48.682;9.016;2024-02-21T11:52:06;12.80;88.20
3406;DHT22;10008;48.682;9.016;2024-02-21T11:54:33;12.80;88.50
3406;DHT22;10008;48.682;9.016;2024-02-21T11:56:59;12.70;90.50
3406;DHT22;10008;48.682;9.016;2024-02-21T11:59:25;12.70;88.80
3406;DHT22;10008;48.682;9.016;2024-02-21T12:01:52;12.70;89.20
3406;DHT22;10008;48.682;9.016;2024-02-21T12:04:19;12.60;86.80
3406;DHT22;10008;48.682;9.016;2024-02-21T12:06:46;12.70;87.10
3406;DHT22;10008;48.682;9.016;2024-02-21T12:09:15;12.90;89.50
3406;DHT22;10008;48.682;9.016;2024-02-21T12:11:42;13.30;88.90
3406;DHT22;10008;48.682;9.016;2024-02-21T12:14:08;13.70;87.10
3406;DHT22;10008;48.682;9.016;2024-02-21T12:16:35;13.40;83.10
3406;DHT22;10008;48.682;9.016;2024-02-21T12:19:04;13.80;84.40
3406;DHT22;10008;48.682;9.016;2024-02-21T12:21:31;14.00;83.60
3406;DHT22;10008;48.682;9.016;2024-02-21T12:23:58;14.00;81.20
3406;DHT22;10008;48.682;9.016;2024-02-21T12:26:25;14.00;79.70
3406;DHT22;10008;48.682;9.016;2024-02-21T12:28:51;13.90;77.60
3406;DHT22;10008;48.682;9.016;2024-02-21T12:31:17;14.00;79.70
3406;DHT22;10008;48.682;9.016;2024-02-21T12:33:43;14.10;79.10
3406;DHT22;10008;48.682;9.016;2024-02-21T12:36:09;14.10;79.80
3406;DHT22;10008;48.682;9.016;2024-02-21T12:38:35;14.20;78.80
3406;DHT22;10008;48.682;9.016;2024-02-21T12:41:01;14.20;81.40
3406;DHT22;10008;48.682;9.016;2024-02-21T12:43:27;14.20;78.90
3406;DHT22;10008;48.682;9.016;2024-02-21T12:45:53;14.00;77.00
3406;DHT22;10008;48.682;9.016;2024-02-21T12:48:19;13.90;77.50
3406;DHT22;10008;48.682;9.016;2024-02-21T12:50:51;13.90;77.50
3406;DHT22;10008;48.682;9.016;2024-02-21T12:53:19;14.00;78.00
3406;DHT22;10008;48.682;9.016;2024-02-21T12:55:50;14.00;75.10
3406;DHT22;10008;48.682;9.016;2024-02-21T12:58:16;14.00;77.40
3406;DHT22;10008;48.682;9.016;2024-02-21T13:00:42;13.80;77.50
3406;DHT22;10008;48.682;9.016;2024-02-21T13:03:08;13.80;78.40
3406;DHT22;10008;48.682;9.016;2024-02-21T13:05:38;13.70;78.70
3406;DHT22;10008;48.682;9.016;2024-02-21T13:08:05;13.60;79.40
3406;DHT22;10008;48.682;9.016;2024-02-21T13:10:32;13.50;78.90
3406;DHT22;10008;48.682;9.016;2024-02-21T13:13:02;13.50;80.30
3406;DHT22;10008;48.682;9.016;2024-02-21T13:15:28;13.50;79.00
3406;DHT22;10008;48.682;9.016;2024-02-21T13:17:57;13.50;79.60
3406;DHT22;10008;48.682;9.016;2024-02-21T13:20:25;13.30;79.80
3406;DHT22;10008;48.682;9.016;2024-02-21T13:22:52;13.20;79.40
3406;DHT22;10008;48.682;9.016;2024-02-21T13:25:18;13.10;79.60
3406;DHT22;10008;48.682;9.016;2024-02-21T13:27:46;13.10;81.70
3406;DHT22;10008;48.682;9.016;2024-02-21T13:30:13;13.20;80.40
3406;DHT22;10008;48.682;9.016;2024-02-21T13:32:41;13.10;79.00
3406;DHT22;10008;48.682;9.016;2024-02-21T13:35:08;13.10;80.20
3406;DHT22;10008;48.682;9.016;2024-02-21T13:37:34;13.10;79.40
3406;DHT22;10008;48.682;9.016;2024-02-21T13:40:00;13.00;79.10
3406;DHT22;10008;48.682;9.016;2024-02-21T13:42:26;13.10;80.80
3406;DHT22;10008;48.682;9.016;2024-02-21T13:44:53;13.10;82.00
3406;DHT22;10008;48.682;9.016;2024-02-21T13:47:19;13.20;81.70
3406;DHT22;10008;48.682;9.016;2024-02-21T13:49:47;13.40;81.00
3406;DHT22;10008;48.682;9.016;2024-02-21T13:52:13;13.20;80.60
3406;DHT22;10008;48.682;9.016;2024-02-21T13:54:40;13.10;80.40
3406;DHT22;10008;48.682;9.016;2024-02-21T13:57:05;13.10;80.10
3406;DHT22;10008;48.682;9.016;2024-02-21T13:59:31;13.10;82.10
3406;DHT22;10008;48.682;9.016;2024-02-21T14:01:59;13.20;81.40
3406;DHT22;10008;48.682;9.016;2024-02-21T14:04:25;13.30;81.00
3406;DHT22;10008;48.682;9.016;2024-02-21T14:06:50;13.30;74.90
3406;DHT22;10008;48.682;9.016;2024-02-21T14:09:16;13.20;75.50
3406;DHT22;10008;48.682;9.016;2024-02-21T14:11:42;13.20;76.30
3406;DHT22;10008;48.682;9.016;2024-02-21T14:14:08;13.30;77.20
3406;DHT22;10008;48.682;9.016;2024-02-21T14:16:33;13.30;74.90
3406;DHT22;10008;48.682;9.016;2024-02-21T14:18:59;13.20;78.60
3406;DHT22;10008;48.682;9.016;2024-02-21T14:21:25;13.10;80.10
3406;DHT22;10008;48.682;9.016;2024-02-21T14:23:51;12.90;77.80
3406;DHT22;10008;48.682;9.016;2024-02-21T14:26:18;12.90;80.50
3406;DHT22;10008;48.682;9.016;2024-02-21T14:28:44;12.80;80.70
3406;DHT22;10008;48.682;9.016;2024-02-21T14:31:11;12.80;79.90
3406;DHT22;10008;48.682;9.016;2024-02-21T14:33:37;12.70;78.60
3406;DHT22;10008;48.682;9.016;2024-02-21T14:36:03;12.80;79.10
3406;DHT22;10008;48.682;9.016;2024-02-21T14:38:29;12.70;80.60
3406;DHT22;10008;48.682;9.016;2024-02-21T14:40:55;12.70;82.30
3406;DHT22;10008;48.682;9.016;2024-02-21T14:43:21;12.80;81.50
3406;DHT22;10008;48.682;9.016;2024-02-21T14:45:50;12.80;82.00
3406;DHT22;10008;48.682;9.016;2024-02-21T14:48:16;12.80;79.90
3406;DHT22;10008;48.682;9.016;2024-02-21T14:50:42;12.90;81.60
3406;DHT22;10008;48.682;9.016;2024-02-21T14:53:10;12.80;81.40
3406;DHT22;10008;48.682;9.016;2024-02-21T14:55:36;12.60;85.00
3406;DHT22;10008;48.682;9.016;2024-02-21T14:58:06;12.50;84.90
3406;DHT22;10008;48.682;9.016;2024-02-21T15:00:32;12.50;84.70
3406;DHT22;10008;48.682;9.016;2024-02-21T15:02:58;12.50;84.80
3406;DHT22;10008;48.682;9.016;2024-02-21T15:05:25;12.50;86.00
3406;DHT22;10008;48.682;9.016;2024-02-21T15:07:51;12.40;86.30
3406;DHT22;10008;48.682;9.016;2024-02-21T15:10:17;12.30;87.10
3406;DHT22;10008;48.682;9.016;2024-02-21T15:12:46;12.20;88.70
3406;DHT22;10008;48.682;9.016;2024-02-21T15:15:13;12.30;88.60
3406;DHT22;10008;48.682;9.016;2024-02-21T15:17:39;12.20;83.20
3406;DHT22;10008;48.682;9.016;2024-02-21T15:20:05;12.20;85.60
3406;DHT22;10008;48.682;9.016;2024-02-21T15:22:35;12.30;89.00
3406;DHT22;10008;48.682;9.016;2024-02-21T15:25:04;12.30;90.20
3406;DHT22;10008;48.682;9.016;2024-02-21T15:27:38;12.30;91.00
3406;DHT22;10008;48.682;9.016;2024-02-21T15:30:04;12.40;90.70
3406;DHT22;10008;48.682;9.016;2024-02-21T15:32:31;12.40;91.50
3406;DHT22;10008;48.682;9.016;2024-02-21T15:34:57;12.30;91.00
3406;DHT22;10008;48.682;9.016;2024-02-21T15:37:22;12.30;91.50
3406;DHT22;10008;48.682;9.016;2024-02-21T15:39:48;12.10;91.20
3406;DHT22;10008;48.682;9.016;2024-02-21T15:42:14;12.10;91.60
3406;DHT22;10008;48.682;9.016;2024-02-21T15:44:39;12.00;91.90
3406;DHT22;10008;48.682;9.016;2024-02-21T15:47:05;12.00;92.60
3406;DHT22;10008;48.682;9.016;2024-02-21T15:49:31;11.90;92.90
3406;DHT22;10008;48.682;9.016;2024-02-21T15:51:56;11.80;93.00
3406;DHT22;10008;48.682;9.016;2024-02-21T15:54:22;11.90;93.30
3406;DHT22;10008;48.682;9.016;2024-02-21T15:56:48;11.90;93.40